Agency, IA (52530)

3:52 PM CDT on August 30, 2015 (GMT -0500)
East | | Change Station
CLOSE
Current Station
Personal Weather Station
Location: Ottumwa, IA
Elevation: 833 ft
Nearby Weather Stations

Elev 833 ft 41.03 °N, 92.40 °W | Updated 9 seconds ago

Clear
Clear
83.3 °F
Feels Like 88 °F
N
2.5
Wind Variable Wind from NNE
Gusts 2.5 mph

Today
High -- | Low -- °F
--% Chance of Precip.
Yesterday
High -- | Low -- °F
Precip. -- in
6:33 AM 7:45 PM
Full, 98% visible
Pressure 30.02 in
Visibility 10.0 miles
Clouds Clear
Heat Index 88 °F
Dew Point 71 °F
Humidity 67%
Rainfall 0.00 in
Snow Depth Not available.
UV 8 out of 12
Pollen 10.40 out of 12
Air Quality Not available.
Flu Activity Not available.
METAR KOTM 301953Z AUTO 00000KT 10SM CLR 24/21 A3003 RMK AO2 SLP165 T02440206 TSNO
Pressure 30.02 in
Visibility 10.0 miles
Clouds Clear
Heat Index 88 °F
Dew Point 71 °F
Humidity 67%
Rainfall 0.00 in
Snow Depth Not available.
UV 8 out of 12
Pollen 10.40 out of 12
Air Quality Not available.
Flu Activity Not available.
METAR KOTM 301953Z AUTO 00000KT 10SM CLR 24/21 A3003 RMK AO2 SLP165 T02440206 TSNO

10-Day Weather Forecast

×

Almanac

Astronomy

Aug. 30, 2015 Rise Set
Actual Time
Civil Twilight
Nautical Twilight
Astronomical Twilight
Moon
Length of Visible Light
Length of Day
Tomorrow will be .
, % of the Moon is Illuminated

Today's Extremes

State Highs State Lows

Community

WunderPhotos

Upload Photos

1,851,057 photos uploaded!

WunderBlogs® & News

Nearby

Air Quality

  Air Quality AQ Index Pollutant
Not available.

Snow Depth

Station Depth Elevation

Earthquake Activity

City Distance Mag. Time & Date
Minimum magnitude displayed is 2.5.

Coastal Water Temperatures

Place Temperature

Stations

Nearby Weather Stations

Station Location Temp. Windchill Dew Point Humidity Wind Precip. Elev Updated Type